Time;durP1;ratioP1;P1;durP2;ratioP2;P2;SDS_P1;SDS_P2;PMS_P1;PMS_P2;Temp;Humidity;BMP_temperature;BMP_pressure;BME280_temperature;BME280_humidity;BME280_pressure;Samples;Min_cycle;Max_cycle;Signal;HPM_P1;HPM_P2
2022/10/16 00:02:18;;;;;;;;;;;13.50;99.90;;;;;;5007496;28;19977;-73
2022/10/16 00:04:50;;;;;;;;;;;13.60;99.90;;;;;;5025134;28;19984;-75
2022/10/16 00:07:22;;;;;;;;;;;13.50;99.90;;;;;;4991245;28;19949;-76
2022/10/16 00:09:53;;;;;;;;;;;13.60;99.90;;;;;;5010450;28;19925;-74
2022/10/16 00:12:25;;;;;;;;;;;13.50;99.90;;;;;;5011164;28;20595;-74
2022/10/16 00:14:51;;;;;;;;;;;13.50;99.90;;;;;;5011321;28;19933;-74
2022/10/16 00:17:23;;;;;;;;;;;13.60;99.90;;;;;;5008975;28;19925;-74
2022/10/16 00:19:55;;;;;;;;;;;13.50;99.90;;;;;;4992749;28;20466;-73
2022/10/16 00:22:26;;;;;;;;;;;13.50;99.90;;;;;;5007596;28;20288;-74
2022/10/16 00:24:58;;;;;;;;;;;13.50;99.90;;;;;;5011246;28;20446;-74
2022/10/16 00:27:29;;;;;;;;;;;13.50;99.90;;;;;;4989740;28;19925;-73
2022/10/16 00:30:01;;;;;;;;;;;13.40;99.90;;;;;;5010574;28;20344;-74
2022/10/16 00:32:28;;;;;;;;;;;13.40;99.90;;;;;;4993697;28;20351;-74
2022/10/16 00:34:59;;;;;;;;;;;13.40;99.90;;;;;;4994490;28;19993;-75
2022/10/16 00:37:31;;;;;;;;;;;13.40;99.90;;;;;;4993370;28;19972;-74
2022/10/16 00:40:02;;;;;;;;;;;13.40;99.90;;;;;;4993354;28;19980;-74
2022/10/16 00:42:34;;;;;;;;;;;13.30;99.90;;;;;;5009508;28;20299;-75
2022/10/16 00:45:01;;;;;;;;;;;13.40;99.90;;;;;;4993343;28;20017;-74
2022/10/16 00:47:38;;;;;;;;;;;13.40;99.90;;;;;;4992398;28;19985;-73
2022/10/16 00:50:10;;;;;;;;;;;13.40;99.90;;;;;;5025792;28;19972;-74
2022/10/16 00:52:44;;;;;;;;;;;13.40;99.90;;;;;;5010906;28;19976;-74
2022/10/16 00:55:11;;;;;;;;;;;13.40;99.90;;;;;;4993147;28;19976;-74
2022/10/16 00:57:43;;;;;;;;;;;13.40;99.90;;;;;;5015645;28;19925;-73
2022/10/16 01:00:17;;;;;;;;;;;13.40;99.90;;;;;;5009593;28;19929;-74
2022/10/16 01:02:55;;;;;;;;;;;13.40;99.90;;;;;;5010500;28;19925;-75
2022/10/16 01:05:23;;;;;;;;;;;13.40;99.90;;;;;;5010305;28;19925;-74
2022/10/16 01:08:18;;;;;;;;;;;13.40;99.90;;;;;;5022915;28;19929;-73
2022/10/16 01:11:01;;;;;;;;;;;13.30;99.90;;;;;;5002450;28;20316;-74
2022/10/16 01:13:37;;;;;;;;;;;13.30;99.90;;;;;;4985127;28;19926;-72
2022/10/16 01:16:13;;;;;;;;;;;13.30;99.90;;;;;;4996516;28;20348;-74
2022/10/16 01:19:00;;;;;;;;;;;13.30;99.90;;;;;;4985088;28;19972;-74
2022/10/16 01:21:36;;;;;;;;;;;13.30;99.90;;;;;;4971424;28;19936;-74
2022/10/16 01:24:22;;;;;;;;;;;13.30;99.90;;;;;;4990148;28;19926;-75
2022/10/16 01:27:11;;;;;;;;;;;13.30;99.90;;;;;;4994619;28;19984;-74
2022/10/16 01:30:07;;;;;;;;;;;13.30;99.90;;;;;;4988579;28;19929;-74
2022/10/16 01:32:39;;;;;;;;;;;13.30;99.90;;;;;;5003967;28;19988;-76
2022/10/16 01:35:13;;;;;;;;;;;13.20;99.90;;;;;;5012515;28;20415;-77
2022/10/16 01:38:00;;;;;;;;;;;13.30;99.90;;;;;;4992446;28;19930;-74
2022/10/16 01:40:33;;;;;;;;;;;13.20;99.90;;;;;;5023711;28;19972;-74
2022/10/16 01:43:02;;;;;;;;;;;13.20;99.90;;;;;;5028099;28;20754;-74
2022/10/16 01:45:29;;;;;;;;;;;13.10;99.90;;;;;;5016072;28;20559;-77
2022/10/16 01:48:04;;;;;;;;;;;13.10;99.90;;;;;;5004929;28;19933;-74
2022/10/16 01:50:39;;;;;;;;;;;13.00;99.90;;;;;;4994701;28;19937;-76
2022/10/16 01:53:12;;;;;;;;;;;13.10;99.90;;;;;;5012748;28;20300;-74
2022/10/16 01:55:44;;;;;;;;;;;13.00;99.90;;;;;;5012652;28;19925;-74
2022/10/16 01:58:16;;;;;;;;;;;13.00;99.90;;;;;;5016119;28;19925;-76
2022/10/16 02:00:47;;;;;;;;;;;13.00;99.90;;;;;;4994957;28;19930;-75
2022/10/16 02:03:22;;;;;;;;;;;13.00;99.90;;;;;;5012394;28;19958;-75
2022/10/16 02:05:55;;;;;;;;;;;13.00;99.90;;;;;;5027125;28;19925;-74
2022/10/16 02:08:28;;;;;;;;;;;13.00;99.90;;;;;;5011238;28;19933;-74
2022/10/16 02:10:55;;;;;;;;;;;13.00;99.90;;;;;;4992762;28;19929;-75
2022/10/16 02:14:00;;;;;;;;;;;12.90;99.90;;;;;;4994707;28;19987;-76
2022/10/16 02:16:34;;;;;;;;;;;12.90;99.90;;;;;;4972154;28;19929;-74
2022/10/16 02:19:06;;;;;;;;;;;12.90;99.90;;;;;;5005663;28;19933;-75
2022/10/16 02:21:39;;;;;;;;;;;12.90;99.90;;;;;;4993849;28;19975;-76
2022/10/16 02:24:09;;;;;;;;;;;12.90;99.90;;;;;;4994458;28;19930;-77
2022/10/16 02:26:40;;;;;;;;;;;12.90;99.90;;;;;;5026431;28;19932;-74
2022/10/16 02:29:13;;;;;;;;;;;12.90;99.90;;;;;;4994498;28;20372;-75
2022/10/16 02:31:47;;;;;;;;;;;12.90;99.90;;;;;;5012075;28;19952;-74
2022/10/16 02:34:14;;;;;;;;;;;12.90;99.90;;;;;;5026971;28;19933;-76
2022/10/16 02:36:47;;;;;;;;;;;12.90;99.90;;;;;;5001221;28;20003;-74
2022/10/16 02:39:19;;;;;;;;;;;12.90;99.90;;;;;;5005700;28;20469;-76
2022/10/16 02:41:46;;;;;;;;;;;12.90;99.90;;;;;;5009032;28;19976;-76
2022/10/16 02:44:12;;;;;;;;;;;12.90;99.90;;;;;;5009448;28;20280;-76
2022/10/16 02:46:44;;;;;;;;;;;12.90;99.90;;;;;;4991558;28;19983;-73
2022/10/16 02:49:16;;;;;;;;;;;12.90;99.90;;;;;;4990843;28;19979;-74
2022/10/16 02:51:47;;;;;;;;;;;12.90;99.90;;;;;;5009496;28;20334;-74
2022/10/16 02:54:14;;;;;;;;;;;12.90;99.90;;;;;;5026596;28;19933;-74
2022/10/16 02:56:40;;;;;;;;;;;12.90;99.90;;;;;;4991431;28;20062;-74
2022/10/16 02:59:07;;;;;;;;;;;13.00;99.90;;;;;;4992775;28;19933;-75
2022/10/16 03:01:39;;;;;;;;;;;13.00;99.90;;;;;;4991579;28;19926;-74
2022/10/16 03:04:10;;;;;;;;;;;13.00;99.90;;;;;;4990489;28;19926;-75
2022/10/16 03:06:37;;;;;;;;;;;12.90;99.90;;;;;;4986540;28;19972;-74
2022/10/16 03:09:09;;;;;;;;;;;12.90;99.90;;;;;;5025276;28;19979;-76
2022/10/16 03:11:35;;;;;;;;;;;12.90;99.90;;;;;;5008000;28;19988;-75
2022/10/16 03:14:07;;;;;;;;;;;12.80;99.90;;;;;;4993558;28;19932;-75
2022/10/16 03:16:33;;;;;;;;;;;12.80;99.90;;;;;;5025391;28;20270;-74
2022/10/16 03:19:05;;;;;;;;;;;12.90;99.90;;;;;;5008732;28;19929;-74
2022/10/16 03:21:37;;;;;;;;;;;12.90;99.90;;;;;;4982537;28;19984;-74
2022/10/16 03:24:04;;;;;;;;;;;12.90;99.90;;;;;;4993867;28;19929;-75
2022/10/16 03:26:35;;;;;;;;;;;12.90;99.90;;;;;;5007898;28;19942;-76
2022/10/16 03:29:03;;;;;;;;;;;12.80;99.90;;;;;;5009255;28;19925;-74
2022/10/16 03:31:34;;;;;;;;;;;12.80;99.90;;;;;;4997321;28;19982;-74
2022/10/16 03:34:06;;;;;;;;;;;12.90;99.90;;;;;;4992985;28;19929;-74
2022/10/16 03:36:37;;;;;;;;;;;12.90;99.90;;;;;;4998798;28;19925;-76
2022/10/16 03:39:09;;;;;;;;;;;12.80;99.90;;;;;;5003552;28;19925;-74
2022/10/16 03:41:35;;;;;;;;;;;12.90;99.90;;;;;;5019913;28;20438;-74
2022/10/16 03:44:02;;;;;;;;;;;12.80;99.90;;;;;;5007689;28;20527;-76
2022/10/16 03:46:33;;;;;;;;;;;12.80;99.90;;;;;;5005374;28;19953;-76
2022/10/16 03:49:05;;;;;;;;;;;12.80;99.90;;;;;;5008006;28;19926;-74
2022/10/16 03:51:32;;;;;;;;;;;12.70;99.90;;;;;;4993429;28;19925;-75
2022/10/16 03:53:58;;;;;;;;;;;12.80;99.90;;;;;;5011139;28;19926;-74
2022/10/16 03:56:30;;;;;;;;;;;12.80;99.90;;;;;;5024955;28;19929;-74
2022/10/16 03:58:56;;;;;;;;;;;12.70;99.90;;;;;;5024900;28;19992;-74
2022/10/16 04:01:28;;;;;;;;;;;12.80;99.90;;;;;;4984964;28;19926;-74
2022/10/16 04:04:00;;;;;;;;;;;12.80;99.90;;;;;;5025963;28;19972;-74
2022/10/16 04:06:26;;;;;;;;;;;12.80;99.90;;;;;;4992496;28;20395;-74
2022/10/16 04:08:53;;;;;;;;;;;12.80;99.90;;;;;;4992042;28;20371;-76
2022/10/16 04:11:24;;;;;;;;;;;12.80;99.90;;;;;;5025219;28;20607;-76
2022/10/16 04:13:56;;;;;;;;;;;12.80;99.90;;;;;;5006592;28;19980;-75
2022/10/16 04:16:27;;;;;;;;;;;12.80;99.90;;;;;;4992500;28;19972;-74
2022/10/16 04:18:59;;;;;;;;;;;12.80;99.90;;;;;;4991699;28;19925;-75
2022/10/16 04:21:31;;;;;;;;;;;12.80;99.90;;;;;;4977770;28;19926;-75
2022/10/16 04:24:02;;;;;;;;;;;12.90;99.90;;;;;;5010654;28;19933;-76
2022/10/16 04:26:34;;;;;;;;;;;12.80;99.90;;;;;;5006931;28;20434;-74
2022/10/16 04:29:06;;;;;;;;;;;12.80;99.90;;;;;;5007142;28;19999;-75
2022/10/16 04:31:33;;;;;;;;;;;12.80;99.90;;;;;;4997670;28;19929;-74
2022/10/16 04:34:00;;;;;;;;;;;12.70;99.90;;;;;;5009174;28;19926;-74
2022/10/16 04:36:32;;;;;;;;;;;12.70;99.90;;;;;;5008642;28;19930;-76
2022/10/16 04:38:58;;;;;;;;;;;12.70;99.90;;;;;;4991775;28;19933;-74
2022/10/16 04:41:30;;;;;;;;;;;12.60;99.90;;;;;;4992592;28;19929;-74
2022/10/16 04:43:56;;;;;;;;;;;12.70;99.90;;;;;;4990285;28;19981;-76
2022/10/16 04:46:23;;;;;;;;;;;12.70;99.90;;;;;;5009898;28;19926;-74
2022/10/16 04:48:55;;;;;;;;;;;12.70;99.90;;;;;;4999206;28;19944;-76
2022/10/16 04:51:21;;;;;;;;;;;12.60;99.90;;;;;;5013173;28;19925;-76
2022/10/16 04:53:48;;;;;;;;;;;12.50;99.90;;;;;;4996485;28;19933;-76
2022/10/16 04:56:20;;;;;;;;;;;12.50;99.90;;;;;;4994985;28;19930;-76
2022/10/16 04:58:52;;;;;;;;;;;12.50;99.90;;;;;;5011048;28;20343;-75
2022/10/16 05:01:19;;;;;;;;;;;12.50;99.90;;;;;;4995038;28;19931;-75
2022/10/16 05:03:45;;;;;;;;;;;12.50;99.90;;;;;;5012729;28;19988;-76
2022/10/16 05:06:12;;;;;;;;;;;12.50;99.90;;;;;;5013401;28;19925;-76
2022/10/16 05:08:43;;;;;;;;;;;12.40;99.90;;;;;;5027149;28;19960;-74
2022/10/16 05:11:15;;;;;;;;;;;12.40;99.90;;;;;;4996297;28;19933;-74
2022/10/16 05:13:47;;;;;;;;;;;12.50;99.90;;;;;;5013648;28;19925;-74
2022/10/16 05:16:18;;;;;;;;;;;12.50;99.90;;;;;;5007018;28;19930;-74
2022/10/16 05:18:51;;;;;;;;;;;12.50;99.90;;;;;;4995024;28;19988;-76
2022/10/16 05:21:22;;;;;;;;;;;12.50;99.90;;;;;;5011851;28;19929;-74
2022/10/16 05:23:49;;;;;;;;;;;12.50;99.90;;;;;;5001119;28;19945;-75
2022/10/16 05:26:15;;;;;;;;;;;12.40;99.90;;;;;;5016061;28;19933;-75
2022/10/16 05:28:42;;;;;;;;;;;12.40;99.90;;;;;;4986626;28;19984;-74
2022/10/16 05:31:09;;;;;;;;;;;12.40;99.90;;;;;;4993998;28;20392;-76
2022/10/16 05:33:41;;;;;;;;;;;12.40;99.90;;;;;;4990076;28;19984;-74
2022/10/16 05:36:12;;;;;;;;;;;12.40;99.90;;;;;;5009536;28;20411;-74
2022/10/16 05:38:44;;;;;;;;;;;12.50;99.90;;;;;;4993808;28;19980;-74
2022/10/16 05:41:10;;;;;;;;;;;12.50;99.90;;;;;;5002876;28;19932;-76
2022/10/16 05:43:42;;;;;;;;;;;12.50;99.90;;;;;;5011613;28;19926;-76
2022/10/16 05:46:09;;;;;;;;;;;12.50;99.90;;;;;;4999620;28;19933;-75
2022/10/16 05:48:40;;;;;;;;;;;12.50;99.90;;;;;;4992490;28;20427;-74
2022/10/16 05:51:09;;;;;;;;;;;12.40;99.90;;;;;;5011658;28;19932;-75
2022/10/16 05:53:41;;;;;;;;;;;12.50;99.90;;;;;;4996044;28;19929;-74
2022/10/16 05:56:10;;;;;;;;;;;12.50;99.90;;;;;;4991670;28;20599;-74
2022/10/16 05:58:41;;;;;;;;;;;12.50;99.90;;;;;;5003803;28;19937;-74
2022/10/16 06:01:14;;;;;;;;;;;12.60;99.90;;;;;;5008669;28;20572;-74
2022/10/16 06:03:46;;;;;;;;;;;12.60;99.90;;;;;;5008491;28;19926;-76
2022/10/16 06:06:22;;;;;;;;;;;12.60;99.90;;;;;;4979040;28;19937;-76
2022/10/16 06:08:55;;;;;;;;;;;12.60;99.90;;;;;;4990177;28;19949;-75
2022/10/16 06:11:28;;;;;;;;;;;12.60;99.90;;;;;;5007732;28;19980;-76
2022/10/16 06:13:56;;;;;;;;;;;12.60;99.90;;;;;;5010765;28;19984;-75
2022/10/16 06:16:28;;;;;;;;;;;12.60;99.90;;;;;;4975056;28;19933;-75
2022/10/16 06:19:00;;;;;;;;;;;12.60;99.90;;;;;;5003418;28;19933;-74
2022/10/16 06:21:27;;;;;;;;;;;12.60;99.90;;;;;;4981795;28;20009;-75
2022/10/16 06:23:59;;;;;;;;;;;12.60;99.90;;;;;;4992901;28;19926;-75
2022/10/16 06:26:30;;;;;;;;;;;12.60;99.90;;;;;;5007443;28;19925;-75
2022/10/16 06:28:58;;;;;;;;;;;12.60;99.90;;;;;;4992271;28;19925;-75
2022/10/16 06:31:27;;;;;;;;;;;12.60;99.90;;;;;;5018963;28;19925;-76
2022/10/16 06:33:59;;;;;;;;;;;12.70;99.90;;;;;;4984883;28;19933;-74
2022/10/16 06:36:30;;;;;;;;;;;12.70;99.90;;;;;;4992362;28;19926;-74
2022/10/16 06:39:02;;;;;;;;;;;12.80;99.90;;;;;;4990567;28;19933;-76
2022/10/16 06:41:34;;;;;;;;;;;12.90;99.90;;;;;;4992051;28;19925;-74
2022/10/16 06:44:15;;;;;;;;;;;12.90;99.90;;;;;;5006402;28;19969;-75
2022/10/16 06:46:46;;;;;;;;;;;13.00;99.90;;;;;;5007102;28;19937;-75
2022/10/16 06:49:22;;;;;;;;;;;13.10;99.90;;;;;;5009371;28;19925;-76
2022/10/16 06:51:53;;;;;;;;;;;13.10;99.90;;;;;;5020460;28;19952;-76
2022/10/16 06:54:20;;;;;;;;;;;13.20;99.90;;;;;;4990847;28;19933;-75
2022/10/16 06:56:46;;;;;;;;;;;13.20;99.90;;;;;;5007981;28;20300;-75
2022/10/16 06:59:18;;;;;;;;;;;13.20;99.90;;;;;;5008862;28;20387;-74
2022/10/16 07:01:49;;;;;;;;;;;13.30;99.90;;;;;;5008254;28;19980;-75
2022/10/16 07:04:21;;;;;;;;;;;13.30;99.90;;;;;;5009843;28;19929;-76
2022/10/16 07:06:48;;;;;;;;;;;13.40;99.90;;;;;;4991491;28;19937;-75
2022/10/16 07:09:19;;;;;;;;;;;13.50;99.90;;;;;;5020093;28;19930;-74
2022/10/16 07:11:46;;;;;;;;;;;13.50;99.90;;;;;;5010195;28;19972;-75
2022/10/16 07:14:18;;;;;;;;;;;13.60;99.90;;;;;;5013141;28;19984;-75
2022/10/16 07:16:49;;;;;;;;;;;13.60;99.90;;;;;;5009476;28;20439;-76
2022/10/16 07:19:21;;;;;;;;;;;13.70;99.90;;;;;;4992228;28;19933;-77
2022/10/16 07:21:47;;;;;;;;;;;13.70;99.90;;;;;;4993053;28;19925;-75
2022/10/16 07:24:19;;;;;;;;;;;13.70;99.90;;;;;;4991448;28;19925;-75
2022/10/16 07:26:51;;;;;;;;;;;13.80;99.90;;;;;;4991618;28;19925;-74
2022/10/16 07:29:22;;;;;;;;;;;13.80;99.90;;;;;;5007909;28;20324;-75
2022/10/16 07:31:54;;;;;;;;;;;13.90;99.90;;;;;;5017860;28;19948;-75
2022/10/16 07:34:26;;;;;;;;;;;13.90;99.90;;;;;;5025143;28;20359;-76
2022/10/16 07:36:58;;;;;;;;;;;14.00;99.90;;;;;;4986252;28;19988;-74
2022/10/16 07:39:29;;;;;;;;;;;14.10;99.90;;;;;;5008903;28;19948;-73
2022/10/16 07:41:56;;;;;;;;;;;14.20;99.90;;;;;;4992044;28;19925;-74
2022/10/16 07:44:27;;;;;;;;;;;14.30;99.90;;;;;;4991743;28;19959;-76
2022/10/16 07:46:59;;;;;;;;;;;14.30;99.90;;;;;;4992398;28;19934;-73
2022/10/16 07:49:30;;;;;;;;;;;14.50;99.90;;;;;;4996274;28;20774;-75
2022/10/16 07:52:02;;;;;;;;;;;14.50;99.90;;;;;;5007293;28;19926;-75
2022/10/16 07:54:34;;;;;;;;;;;14.60;99.90;;;;;;4992720;28;19925;-75
2022/10/16 07:57:05;;;;;;;;;;;14.70;99.90;;;;;;4996533;28;20355;-76
2022/10/16 07:59:37;;;;;;;;;;;14.70;99.90;;;;;;4988083;28;20392;-75
2022/10/16 08:02:08;;;;;;;;;;;14.80;99.90;;;;;;4985486;28;19929;-74
2022/10/16 08:04:40;;;;;;;;;;;14.80;99.90;;;;;;4989220;28;19926;-74
2022/10/16 08:07:12;;;;;;;;;;;14.90;99.90;;;;;;5006544;28;20316;-75
2022/10/16 08:09:43;;;;;;;;;;;15.00;99.90;;;;;;5009916;28;19988;-74
2022/10/16 08:12:15;;;;;;;;;;;15.20;99.90;;;;;;5001673;28;19930;-74
2022/10/16 08:14:46;;;;;;;;;;;15.40;99.90;;;;;;4999916;28;19984;-74
2022/10/16 08:17:13;;;;;;;;;;;15.50;99.90;;;;;;5024833;28;19926;-75
2022/10/16 08:19:46;;;;;;;;;;;15.70;99.90;;;;;;5010931;28;19925;-75
2022/10/16 08:22:13;;;;;;;;;;;15.90;99.90;;;;;;4992322;28;20066;-75
2022/10/16 08:24:44;;;;;;;;;;;16.00;99.90;;;;;;5010943;28;19925;-74
2022/10/16 08:27:11;;;;;;;;;;;16.20;99.90;;;;;;5004614;28;19929;-74
2022/10/16 08:29:42;;;;;;;;;;;16.40;99.90;;;;;;4975825;28;19945;-76
2022/10/16 08:32:14;;;;;;;;;;;16.70;99.90;;;;;;4988760;28;20584;-73
2022/10/16 08:34:45;;;;;;;;;;;17.10;99.90;;;;;;5007526;28;20359;-75
2022/10/16 08:37:17;;;;;;;;;;;17.50;99.90;;;;;;5011110;28;20028;-75
2022/10/16 08:39:49;;;;;;;;;;;17.80;99.90;;;;;;4989922;28;20813;-75
2022/10/16 08:42:20;;;;;;;;;;;18.00;99.90;;;;;;5014846;28;19926;-76
2022/10/16 08:45:06;;;;;;;;;;;18.20;99.90;;;;;;5008549;28;19925;-76
2022/10/16 08:47:56;;;;;;;;;;;18.40;99.90;;;;;;4986767;28;19989;-75
2022/10/16 08:50:29;;;;;;;;;;;18.80;99.90;;;;;;5016648;28;19925;-73
2022/10/16 08:53:03;;;;;;;;;;;19.00;99.90;;;;;;5007453;28;19925;-76
2022/10/16 08:55:34;;;;;;;;;;;19.10;99.90;;;;;;5001096;28;19925;-75
2022/10/16 08:58:11;;;;;;;;;;;19.20;99.90;;;;;;5003784;28;19926;-74
2022/10/16 09:00:38;;;;;;;;;;;19.30;99.90;;;;;;4989848;28;19942;-73
2022/10/16 09:03:10;;;;;;;;;;;19.40;99.90;;;;;;5009919;28;20447;-75
2022/10/16 09:05:51;;;;;;;;;;;19.50;99.90;;;;;;5007499;28;19925;-75
2022/10/16 09:08:25;;;;;;;;;;;19.70;99.90;;;;;;5002085;28;19929;-74
2022/10/16 09:11:04;;;;;;;;;;;19.70;99.90;;;;;;5003468;28;19972;-76
2022/10/16 09:13:43;;;;;;;;;;;19.80;99.90;;;;;;4989458;28;20678;-74
2022/10/16 09:16:22;;;;;;;;;;;19.80;99.90;;;;;;5007498;28;19980;-74
2022/10/16 09:19:09;;;;;;;;;;;19.80;99.90;;;;;;4983828;28;20355;-74
2022/10/16 09:21:42;;;;;;;;;;;19.70;99.90;;;;;;5019098;28;19926;-73
2022/10/16 09:24:13;;;;;;;;;;;19.70;99.90;;;;;;4988258;28;20352;-75
2022/10/16 09:26:45;;;;;;;;;;;19.60;99.90;;;;;;4988192;28;19925;-73
2022/10/16 09:29:19;;;;;;;;;;;19.60;99.90;;;;;;5010099;28;20407;-75
2022/10/16 09:31:52;;;;;;;;;;;19.50;99.90;;;;;;4997933;28;20297;-76
2022/10/16 09:34:31;;;;;;;;;;;19.50;99.90;;;;;;5006053;28;19926;-75
2022/10/16 09:37:05;;;;;;;;;;;19.60;99.90;;;;;;4995733;28;19940;-73
2022/10/16 09:39:44;;;;;;;;;;;19.50;99.90;;;;;;5011215;28;20401;-74
2022/10/16 09:42:20;;;;;;;;;;;19.50;99.90;;;;;;4996555;28;19925;-74
2022/10/16 09:44:53;;;;;;;;;;;19.50;99.90;;;;;;5013922;28;19929;-75
2022/10/16 09:47:26;;;;;;;;;;;19.50;99.90;;;;;;5007094;28;19932;-73
2022/10/16 09:50:01;;;;;;;;;;;19.50;99.90;;;;;;5006005;28;20003;-74
2022/10/16 09:52:33;;;;;;;;;;;19.60;99.90;;;;;;4995419;28;19968;-76
2022/10/16 09:55:15;;;;;;;;;;;19.60;99.90;;;;;;4994122;28;20531;-73
2022/10/16 09:57:50;;;;;;;;;;;19.70;99.90;;;;;;5004136;28;19933;-74
2022/10/16 10:00:23;;;;;;;;;;;19.70;99.90;;;;;;4992009;28;19925;-74
2022/10/16 10:02:55;;;;;;;;;;;19.70;99.90;;;;;;5010349;28;19926;-75
2022/10/16 10:05:28;;;;;;;;;;;19.70;99.90;;;;;;5011795;28;19925;-76
2022/10/16 10:08:02;;;;;;;;;;;19.80;99.90;;;;;;4992192;28;19934;-75
2022/10/16 10:10:40;;;;;;;;;;;19.80;99.90;;;;;;4992618;28;19932;-74
2022/10/16 10:13:18;;;;;;;;;;;19.90;99.90;;;;;;4993427;28;19933;-74
2022/10/16 10:15:45;;;;;;;;;;;19.90;99.90;;;;;;4994287;28;19930;-76
2022/10/16 10:18:19;;;;;;;;;;;19.90;99.90;;;;;;4989418;28;19926;-75
2022/10/16 10:20:58;;;;;;;;;;;19.90;99.90;;;;;;4994506;28;19980;-75
2022/10/16 10:23:26;;;;;;;;;;;20.00;99.90;;;;;;4994048;28;19929;-76
2022/10/16 10:25:56;;;;;;;;;;;20.10;99.90;;;;;;5010709;28;19976;-75
2022/10/16 10:28:43;;;;;;;;;;;20.10;99.90;;;;;;5017034;28;19925;-73
2022/10/16 10:31:34;;;;;;;;;;;20.20;99.90;;;;;;4992669;28;19925;-75
2022/10/16 10:34:16;;;;;;;;;;;20.30;99.90;;;;;;5011465;28;19975;-76
2022/10/16 10:36:55;;;;;;;;;;;20.40;99.90;;;;;;4993716;28;20029;-76
2022/10/16 10:39:50;;;;;;;;;;;20.50;99.90;;;;;;5008976;28;19972;-72
2022/10/16 10:42:25;;;;;;;;;;;20.60;99.90;;;;;;5005472;28;19926;-74
2022/10/16 10:45:11;;;;;;;;;;;20.70;99.90;;;;;;4992958;28;19984;-74
2022/10/16 10:47:47;;;;;;;;;;;20.70;99.90;;;;;;5017090;28;19973;-75
2022/10/16 10:50:41;;;;;;;;;;;20.70;99.90;;;;;;5021148;28;19930;-76
2022/10/16 10:53:15;;;;;;;;;;;20.70;99.90;;;;;;4993527;28;19933;-75
2022/10/16 10:55:59;;;;;;;;;;;20.80;99.90;;;;;;5004391;28;20400;-73
2022/10/16 10:58:34;;;;;;;;;;;20.80;99.90;;;;;;4998848;28;19926;-74
2022/10/16 11:01:13;;;;;;;;;;;20.80;99.90;;;;;;4992816;28;19976;-74
2022/10/16 11:04:03;;;;;;;;;;;20.80;99.90;;;;;;5007361;28;20272;-74
2022/10/16 11:06:39;;;;;;;;;;;20.90;99.90;;;;;;4991837;28;19930;-74
2022/10/16 11:09:10;;;;;;;;;;;21.00;99.90;;;;;;4989288;28;19934;-74
2022/10/16 11:11:44;;;;;;;;;;;21.00;99.90;;;;;;5004384;28;19972;-75
2022/10/16 11:14:21;;;;;;;;;;;21.10;99.90;;;;;;5022039;28;19926;-74
2022/10/16 11:17:10;;;;;;;;;;;21.10;99.90;;;;;;5007763;28;19984;-75
2022/10/16 11:19:42;;;;;;;;;;;21.10;99.90;;;;;;4982754;28;19926;-75
2022/10/16 11:22:17;;;;;;;;;;;21.10;99.90;;;;;;5003410;28;19926;-74
2022/10/16 11:24:51;;;;;;;;;;;21.10;99.90;;;;;;4988937;28;19949;-75
2022/10/16 11:27:22;;;;;;;;;;;21.10;99.90;;;;;;4988732;28;20399;-75
2022/10/16 11:29:55;;;;;;;;;;;21.10;99.90;;;;;;5022112;28;19933;-74
2022/10/16 11:32:25;;;;;;;;;;;21.20;99.90;;;;;;5007220;28;19925;-75
2022/10/16 11:35:08;;;;;;;;;;;21.30;99.90;;;;;;5002355;28;19933;-73
2022/10/16 11:37:43;;;;;;;;;;;21.30;99.90;;;;;;5000364;28;19930;-75
2022/10/16 11:40:28;;;;;;;;;;;21.50;99.90;;;;;;4988445;28;19926;-75
2022/10/16 11:43:06;;;;;;;;;;;21.60;99.90;;;;;;5005165;28;19938;-75
2022/10/16 11:45:46;;;;;;;;;;;21.70;99.90;;;;;;5008902;28;19960;-75
2022/10/16 11:48:22;;;;;;;;;;;21.70;99.90;;;;;;5006962;28;19929;-75
2022/10/16 11:50:53;;;;;;;;;;;21.80;99.90;;;;;;5020837;28;19933;-75
2022/10/16 11:53:41;;;;;;;;;;;21.90;99.90;;;;;;4993226;28;20323;-75
2022/10/16 11:56:17;;;;;;;;;;;22.10;99.90;;;;;;4992239;28;19926;-75
2022/10/16 11:58:48;;;;;;;;;;;22.20;99.90;;;;;;4983526;28;19952;-75
2022/10/16 12:01:20;;;;;;;;;;;22.30;99.90;;;;;;5010888;28;19984;-74
2022/10/16 12:04:03;;;;;;;;;;;22.30;99.90;;;;;;4993717;28;19925;-74
2022/10/16 12:06:50;;;;;;;;;;;22.30;99.90;;;;;;4993245;28;20380;-75
2022/10/16 12:09:29;;;;;;;;;;;22.20;99.90;;;;;;5008552;28;19925;-75
2022/10/16 12:12:01;;;;;;;;;;;22.10;99.90;;;;;;4986920;28;19976;-73
2022/10/16 12:14:34;;;;;;;;;;;22.10;99.90;;;;;;5007681;28;19926;-75
2022/10/16 12:17:20;;;;;;;;;;;22.20;99.90;;;;;;4993544;28;19972;-75
2022/10/16 12:19:59;;;;;;;;;;;22.30;99.90;;;;;;5012997;28;20343;-72
2022/10/16 12:22:31;;;;;;;;;;;22.40;99.90;;;;;;5008187;28;19984;-75
2022/10/16 12:25:03;;;;;;;;;;;22.60;99.90;;;;;;5009702;28;19968;-75
2022/10/16 12:27:35;;;;;;;;;;;22.70;99.90;;;;;;4990458;28;19925;-75
2022/10/16 12:30:07;;;;;;;;;;;22.70;99.90;;;;;;5026094;28;20384;-75
2022/10/16 12:32:39;;;;;;;;;;;22.70;99.90;;;;;;5011156;28;19980;-74
2022/10/16 12:35:19;;;;;;;;;;;22.70;99.90;;;;;;5010896;28;19980;-74
2022/10/16 12:37:51;;;;;;;;;;;22.70;99.90;;;;;;4991845;28;19988;-74
2022/10/16 12:40:30;;;;;;;;;;;22.80;99.90;;;;;;5008470;28;19984;-75
2022/10/16 12:43:12;;;;;;;;;;;22.80;99.90;;;;;;4994242;28;19952;-76
2022/10/16 12:45:46;;;;;;;;;;;22.90;99.90;;;;;;4994111;28;19980;-76
2022/10/16 12:48:19;;;;;;;;;;;22.90;99.90;;;;;;5009734;28;20341;-74
2022/10/16 12:50:51;;;;;;;;;;;23.00;99.90;;;;;;5008194;28;19933;-75
2022/10/16 12:53:24;;;;;;;;;;;23.00;99.90;;;;;;5009351;28;19925;-74
2022/10/16 12:56:03;;;;;;;;;;;23.10;99.90;;;;;;4991242;28;19952;-73
2022/10/16 12:58:35;;;;;;;;;;;23.00;99.90;;;;;;5006980;28;20007;-76
2022/10/16 13:01:10;;;;;;;;;;;23.00;99.90;;;;;;5000539;28;19926;-76
2022/10/16 13:03:42;;;;;;;;;;;23.00;99.90;;;;;;4990209;28;19953;-73
2022/10/16 13:06:20;;;;;;;;;;;23.00;99.90;;;;;;5008351;28;20391;-74
2022/10/16 13:09:02;;;;;;;;;;;23.00;99.90;;;;;;5012494;28;20016;-74
2022/10/16 13:11:43;;;;;;;;;;;23.00;99.90;;;;;;5007386;28;20462;-74
2022/10/16 13:14:20;;;;;;;;;;;23.10;99.90;;;;;;5005352;28;19980;-75
2022/10/16 13:16:47;;;;;;;;;;;23.10;99.90;;;;;;5010932;28;19929;-73
2022/10/16 13:19:22;;;;;;;;;;;23.10;99.90;;;;;;5005968;28;19980;-75
2022/10/16 13:21:53;;;;;;;;;;;23.10;99.90;;;;;;4995938;28;19947;-73
2022/10/16 13:24:31;;;;;;;;;;;23.10;99.90;;;;;;5002993;28;19925;-75
2022/10/16 13:27:09;;;;;;;;;;;23.20;99.90;;;;;;5013361;28;19933;-73
2022/10/16 13:29:41;;;;;;;;;;;23.20;99.90;;;;;;5009905;28;19932;-76
2022/10/16 13:32:15;;;;;;;;;;;23.20;99.90;;;;;;5026385;28;19936;-75
2022/10/16 13:34:48;;;;;;;;;;;23.20;99.90;;;;;;5011897;28;19929;-74
2022/10/16 13:37:21;;;;;;;;;;;23.20;99.90;;;;;;5010442;28;20331;-75
2022/10/16 13:40:07;;;;;;;;;;;23.30;99.90;;;;;;4992440;28;19960;-75
2022/10/16 13:42:38;;;;;;;;;;;23.30;99.90;;;;;;4998016;28;20524;-75
2022/10/16 13:45:17;;;;;;;;;;;23.20;99.90;;;;;;5003301;28;19936;-74
2022/10/16 13:47:49;;;;;;;;;;;23.30;99.90;;;;;;5008125;28;19929;-75
2022/10/16 13:50:20;;;;;;;;;;;23.30;99.90;;;;;;5009467;28;19937;-77
2022/10/16 13:53:02;;;;;;;;;;;23.30;99.90;;;;;;4995081;28;20396;-76
2022/10/16 13:55:34;;;;;;;;;;;23.30;99.90;;;;;;5004825;28;20306;-73
2022/10/16 13:58:16;;;;;;;;;;;23.30;99.90;;;;;;4987657;28;20411;-73
2022/10/16 14:01:01;;;;;;;;;;;23.30;99.90;;;;;;5009442;28;19962;-74
2022/10/16 14:03:33;;;;;;;;;;;23.30;99.90;;;;;;4994905;28;19925;-74
2022/10/16 14:06:11;;;;;;;;;;;23.30;99.90;;;;;;5025548;28;19957;-76
2022/10/16 14:08:42;;;;;;;;;;;23.20;99.90;;;;;;4988582;28;19933;-74
2022/10/16 14:11:20;;;;;;;;;;;23.20;99.90;;;;;;5023453;28;20322;-75
2022/10/16 14:13:47;;;;;;;;;;;23.00;99.90;;;;;;5009049;28;19957;-74
2022/10/16 14:16:26;;;;;;;;;;;23.00;99.90;;;;;;5010405;28;20407;-76
2022/10/16 14:19:01;;;;;;;;;;;22.90;99.90;;;;;;5021517;28;20003;-73
2022/10/16 14:21:33;;;;;;;;;;;22.80;99.90;;;;;;5007441;28;19933;-74
2022/10/16 14:24:24;;;;;;;;;;;22.70;99.90;;;;;;5006518;28;19930;-76
2022/10/16 14:26:56;;;;;;;;;;;22.60;99.90;;;;;;4992176;28;19991;-74
2022/10/16 14:29:32;;;;;;;;;;;22.40;99.90;;;;;;5009862;28;19934;-75
2022/10/16 14:32:00;;;;;;;;;;;22.30;99.90;;;;;;5008254;28;19926;-74
2022/10/16 14:34:33;;;;;;;;;;;22.10;99.90;;;;;;5010424;28;20353;-73
2022/10/16 14:37:25;;;;;;;;;;;22.00;99.90;;;;;;5009527;28;19929;-74
2022/10/16 14:39:56;;;;;;;;;;;21.90;99.90;;;;;;5007891;28;19930;-74
2022/10/16 14:42:28;;;;;;;;;;;21.80;99.90;;;;;;5023654;28;19926;-76
2022/10/16 14:45:00;;;;;;;;;;;21.70;99.90;;;;;;5010783;28;20739;-75
2022/10/16 14:47:31;;;;;;;;;;;21.70;99.90;;;;;;4993749;28;20682;-75
2022/10/16 14:50:03;;;;;;;;;;;21.70;99.90;;;;;;5009878;28;20502;-74
2022/10/16 14:52:34;;;;;;;;;;;21.70;99.90;;;;;;5008772;28;19981;-73